sensor_id;sensor_type;location;lat;lon;timestamp;P1;durP1;ratioP1;P2;durP2;ratioP2
6438;SDS011;3252;52.540;13.290;2024-01-16T00:01:41;1.40;;;0.97;;
6438;SDS011;3252;52.540;13.290;2024-01-16T00:03:44;3.00;;;0.80;;
6438;SDS011;3252;52.540;13.290;2024-01-16T00:05:46;1.73;;;0.90;;
6438;SDS011;3252;52.540;13.290;2024-01-16T00:07:49;1.00;;;0.90;;
6438;SDS011;3252;52.540;13.290;2024-01-16T00:09:50;0.87;;;0.60;;
6438;SDS011;3252;52.540;13.290;2024-01-16T00:11:54;1.50;;;0.70;;
6438;SDS011;3252;52.540;13.290;2024-01-16T00:13:56;0.80;;;0.70;;
6438;SDS011;3252;52.540;13.290;2024-01-16T00:15:58;1.60;;;0.77;;
6438;SDS011;3252;52.540;13.290;2024-01-16T00:18:02;1.70;;;1.00;;
6438;SDS011;3252;52.540;13.290;2024-01-16T00:20:04;1.37;;;0.90;;
6438;SDS011;3252;52.540;13.290;2024-01-16T00:22:07;1.07;;;0.80;;
6438;SDS011;3252;52.540;13.290;2024-01-16T00:24:08;1.40;;;0.90;;
6438;SDS011;3252;52.540;13.290;2024-01-16T00:26:18;1.43;;;0.90;;
6438;SDS011;3252;52.540;13.290;2024-01-16T00:28:21;0.83;;;0.57;;
6438;SDS011;3252;52.540;13.290;2024-01-16T00:30:24;1.37;;;0.80;;
6438;SDS011;3252;52.540;13.290;2024-01-16T00:32:26;1.33;;;0.73;;
6438;SDS011;3252;52.540;13.290;2024-01-16T00:34:28;0.90;;;0.80;;
6438;SDS011;3252;52.540;13.290;2024-01-16T00:36:30;1.70;;;0.80;;
6438;SDS011;3252;52.540;13.290;2024-01-16T00:38:32;1.63;;;0.90;;
6438;SDS011;3252;52.540;13.290;2024-01-16T00:40:34;0.77;;;0.63;;
6438;SDS011;3252;52.540;13.290;2024-01-16T00:42:36;1.30;;;0.67;;
6438;SDS011;3252;52.540;13.290;2024-01-16T00:44:38;1.33;;;0.70;;
6438;SDS011;3252;52.540;13.290;2024-01-16T00:46:42;1.77;;;1.03;;
6438;SDS011;3252;52.540;13.290;2024-01-16T00:48:44;0.67;;;0.53;;
6438;SDS011;3252;52.540;13.290;2024-01-16T00:50:46;1.17;;;0.60;;
6438;SDS011;3252;52.540;13.290;2024-01-16T00:52:49;0.63;;;0.63;;
6438;SDS011;3252;52.540;13.290;2024-01-16T00:54:51;1.03;;;0.73;;
6438;SDS011;3252;52.540;13.290;2024-01-16T00:56:53;1.63;;;0.77;;
6438;SDS011;3252;52.540;13.290;2024-01-16T00:58:59;1.03;;;0.77;;
6438;SDS011;3252;52.540;13.290;2024-01-16T01:01:02;0.83;;;0.63;;
6438;SDS011;3252;52.540;13.290;2024-01-16T01:03:05;0.70;;;0.60;;
6438;SDS011;3252;52.540;13.290;2024-01-16T01:05:07;1.30;;;0.77;;
6438;SDS011;3252;52.540;13.290;2024-01-16T01:07:12;2.40;;;0.97;;
6438;SDS011;3252;52.540;13.290;2024-01-16T01:09:15;0.90;;;0.53;;
6438;SDS011;3252;52.540;13.290;2024-01-16T01:11:18;1.10;;;0.50;;
6438;SDS011;3252;52.540;13.290;2024-01-16T01:13:20;1.33;;;0.67;;
6438;SDS011;3252;52.540;13.290;2024-01-16T01:15:22;0.80;;;0.60;;
6438;SDS011;3252;52.540;13.290;2024-01-16T01:17:24;0.87;;;0.50;;
6438;SDS011;3252;52.540;13.290;2024-01-16T01:19:28;1.07;;;0.73;;
6438;SDS011;3252;52.540;13.290;2024-01-16T01:21:29;1.63;;;0.87;;
6438;SDS011;3252;52.540;13.290;2024-01-16T01:23:31;0.77;;;0.70;;
6438;SDS011;3252;52.540;13.290;2024-01-16T01:25:33;0.70;;;0.63;;
6438;SDS011;3252;52.540;13.290;2024-01-16T01:27:35;1.23;;;0.67;;
6438;SDS011;3252;52.540;13.290;2024-01-16T01:29:38;0.70;;;0.50;;
6438;SDS011;3252;52.540;13.290;2024-01-16T01:31:40;0.90;;;0.60;;
6438;SDS011;3252;52.540;13.290;2024-01-16T01:33:42;1.30;;;0.70;;
6438;SDS011;3252;52.540;13.290;2024-01-16T01:35:45;1.60;;;0.70;;
6438;SDS011;3252;52.540;13.290;2024-01-16T01:37:47;1.23;;;0.70;;
6438;SDS011;3252;52.540;13.290;2024-01-16T01:39:49;0.87;;;0.50;;
6438;SDS011;3252;52.540;13.290;2024-01-16T01:41:51;1.33;;;0.87;;
6438;SDS011;3252;52.540;13.290;2024-01-16T01:43:53;1.17;;;0.70;;
6438;SDS011;3252;52.540;13.290;2024-01-16T01:46:05;1.40;;;0.70;;
6438;SDS011;3252;52.540;13.290;2024-01-16T01:48:10;0.93;;;0.70;;
6438;SDS011;3252;52.540;13.290;2024-01-16T01:50:13;0.93;;;0.50;;
6438;SDS011;3252;52.540;13.290;2024-01-16T01:52:17;0.97;;;0.70;;
6438;SDS011;3252;52.540;13.290;2024-01-16T01:54:20;0.90;;;0.70;;
6438;SDS011;3252;52.540;13.290;2024-01-16T01:56:23;1.10;;;0.80;;
6438;SDS011;3252;52.540;13.290;2024-01-16T01:58:25;0.80;;;0.50;;
6438;SDS011;3252;52.540;13.290;2024-01-16T02:00:26;0.90;;;0.63;;
6438;SDS011;3252;52.540;13.290;2024-01-16T02:02:28;1.07;;;0.60;;
6438;SDS011;3252;52.540;13.290;2024-01-16T02:04:30;0.73;;;0.50;;
6438;SDS011;3252;52.540;13.290;2024-01-16T02:06:33;0.50;;;0.50;;
6438;SDS011;3252;52.540;13.290;2024-01-16T02:08:37;1.60;;;0.50;;
6438;SDS011;3252;52.540;13.290;2024-01-16T02:10:39;1.03;;;0.73;;
6438;SDS011;3252;52.540;13.290;2024-01-16T02:12:48;0.67;;;0.60;;
6438;SDS011;3252;52.540;13.290;2024-01-16T02:14:50;1.10;;;0.60;;
6438;SDS011;3252;52.540;13.290;2024-01-16T02:16:52;0.83;;;0.63;;
6438;SDS011;3252;52.540;13.290;2024-01-16T02:18:54;1.00;;;0.70;;
6438;SDS011;3252;52.540;13.290;2024-01-16T02:20:57;0.77;;;0.50;;
6438;SDS011;3252;52.540;13.290;2024-01-16T02:23:03;0.80;;;0.60;;
6438;SDS011;3252;52.540;13.290;2024-01-16T02:25:07;0.90;;;0.60;;
6438;SDS011;3252;52.540;13.290;2024-01-16T02:27:09;0.57;;;0.53;;
6438;SDS011;3252;52.540;13.290;2024-01-16T02:29:11;0.60;;;0.50;;
6438;SDS011;3252;52.540;13.290;2024-01-16T02:31:13;0.93;;;0.70;;
6438;SDS011;3252;52.540;13.290;2024-01-16T02:33:16;0.77;;;0.57;;
6438;SDS011;3252;52.540;13.290;2024-01-16T02:35:18;0.60;;;0.53;;
6438;SDS011;3252;52.540;13.290;2024-01-16T02:37:20;1.33;;;0.60;;
6438;SDS011;3252;52.540;13.290;2024-01-16T02:39:23;1.13;;;0.80;;
6438;SDS011;3252;52.540;13.290;2024-01-16T02:41:26;0.60;;;0.60;;
6438;SDS011;3252;52.540;13.290;2024-01-16T02:43:27;0.70;;;0.60;;
6438;SDS011;3252;52.540;13.290;2024-01-16T02:45:30;1.37;;;0.80;;
6438;SDS011;3252;52.540;13.290;2024-01-16T02:47:32;0.90;;;0.70;;
6438;SDS011;3252;52.540;13.290;2024-01-16T02:49:35;0.73;;;0.50;;
6438;SDS011;3252;52.540;13.290;2024-01-16T02:51:37;1.17;;;0.70;;
6438;SDS011;3252;52.540;13.290;2024-01-16T02:53:39;0.77;;;0.57;;
6438;SDS011;3252;52.540;13.290;2024-01-16T02:55:41;0.90;;;0.67;;
6438;SDS011;3252;52.540;13.290;2024-01-16T02:57:45;1.33;;;0.57;;
6438;SDS011;3252;52.540;13.290;2024-01-16T02:59:46;0.80;;;0.50;;
6438;SDS011;3252;52.540;13.290;2024-01-16T03:01:48;1.17;;;0.60;;
6438;SDS011;3252;52.540;13.290;2024-01-16T03:03:50;0.70;;;0.50;;
6438;SDS011;3252;52.540;13.290;2024-01-16T03:05:52;0.77;;;0.47;;
6438;SDS011;3252;52.540;13.290;2024-01-16T03:07:53;0.53;;;0.40;;
6438;SDS011;3252;52.540;13.290;2024-01-16T03:09:55;0.90;;;0.60;;
6438;SDS011;3252;52.540;13.290;2024-01-16T03:11:56;1.00;;;0.70;;
6438;SDS011;3252;52.540;13.290;2024-01-16T03:14:00;0.50;;;0.40;;
6438;SDS011;3252;52.540;13.290;2024-01-16T03:16:06;0.90;;;0.60;;
6438;SDS011;3252;52.540;13.290;2024-01-16T03:18:08;1.10;;;0.60;;
6438;SDS011;3252;52.540;13.290;2024-01-16T03:20:11;0.83;;;0.63;;
6438;SDS011;3252;52.540;13.290;2024-01-16T03:22:14;0.60;;;0.50;;
6438;SDS011;3252;52.540;13.290;2024-01-16T03:24:16;0.70;;;0.57;;
6438;SDS011;3252;52.540;13.290;2024-01-16T03:26:18;0.60;;;0.57;;
6438;SDS011;3252;52.540;13.290;2024-01-16T03:28:20;0.40;;;0.40;;
6438;SDS011;3252;52.540;13.290;2024-01-16T03:30:23;0.80;;;0.50;;
6438;SDS011;3252;52.540;13.290;2024-01-16T03:32:25;0.40;;;0.40;;
6438;SDS011;3252;52.540;13.290;2024-01-16T03:34:29;0.57;;;0.50;;
6438;SDS011;3252;52.540;13.290;2024-01-16T03:36:32;0.53;;;0.40;;
6438;SDS011;3252;52.540;13.290;2024-01-16T03:38:35;0.90;;;0.57;;
6438;SDS011;3252;52.540;13.290;2024-01-16T03:40:37;0.67;;;0.50;;
6438;SDS011;3252;52.540;13.290;2024-01-16T03:42:39;0.90;;;0.60;;
6438;SDS011;3252;52.540;13.290;2024-01-16T03:44:41;0.70;;;0.50;;
6438;SDS011;3252;52.540;13.290;2024-01-16T03:46:43;0.40;;;0.40;;
6438;SDS011;3252;52.540;13.290;2024-01-16T03:48:45;0.50;;;0.40;;
6438;SDS011;3252;52.540;13.290;2024-01-16T03:50:47;0.93;;;0.50;;
6438;SDS011;3252;52.540;13.290;2024-01-16T03:52:50;0.83;;;0.53;;
6438;SDS011;3252;52.540;13.290;2024-01-16T03:54:52;0.93;;;0.60;;
6438;SDS011;3252;52.540;13.290;2024-01-16T03:56:53;0.50;;;0.50;;
6438;SDS011;3252;52.540;13.290;2024-01-16T03:58:56;0.87;;;0.40;;
6438;SDS011;3252;52.540;13.290;2024-01-16T04:00:57;0.53;;;0.40;;
6438;SDS011;3252;52.540;13.290;2024-01-16T04:03:00;0.77;;;0.60;;
6438;SDS011;3252;52.540;13.290;2024-01-16T04:05:01;0.70;;;0.50;;
6438;SDS011;3252;52.540;13.290;2024-01-16T04:07:04;0.70;;;0.43;;
6438;SDS011;3252;52.540;13.290;2024-01-16T04:09:07;0.77;;;0.60;;
6438;SDS011;3252;52.540;13.290;2024-01-16T04:11:11;0.87;;;0.60;;
6438;SDS011;3252;52.540;13.290;2024-01-16T04:13:13;0.40;;;0.40;;
6438;SDS011;3252;52.540;13.290;2024-01-16T04:15:16;0.63;;;0.40;;
6438;SDS011;3252;52.540;13.290;2024-01-16T04:17:18;0.80;;;0.53;;
6438;SDS011;3252;52.540;13.290;2024-01-16T04:19:22;0.77;;;0.50;;
6438;SDS011;3252;52.540;13.290;2024-01-16T04:21:23;0.53;;;0.47;;
6438;SDS011;3252;52.540;13.290;2024-01-16T04:23:25;1.20;;;0.60;;
6438;SDS011;3252;52.540;13.290;2024-01-16T04:25:26;0.37;;;0.33;;
6438;SDS011;3252;52.540;13.290;2024-01-16T04:27:28;0.40;;;0.40;;
6438;SDS011;3252;52.540;13.290;2024-01-16T04:29:30;0.97;;;0.63;;
6438;SDS011;3252;52.540;13.290;2024-01-16T04:31:33;0.47;;;0.47;;
6438;SDS011;3252;52.540;13.290;2024-01-16T04:33:40;0.80;;;0.53;;
6438;SDS011;3252;52.540;13.290;2024-01-16T04:35:44;1.13;;;0.60;;
6438;SDS011;3252;52.540;13.290;2024-01-16T04:37:46;0.67;;;0.60;;
6438;SDS011;3252;52.540;13.290;2024-01-16T04:39:48;0.63;;;0.57;;
6438;SDS011;3252;52.540;13.290;2024-01-16T04:41:50;0.50;;;0.50;;
6438;SDS011;3252;52.540;13.290;2024-01-16T04:43:52;0.70;;;0.40;;
6438;SDS011;3252;52.540;13.290;2024-01-16T04:45:54;0.50;;;0.43;;
6438;SDS011;3252;52.540;13.290;2024-01-16T04:47:56;0.77;;;0.47;;
6438;SDS011;3252;52.540;13.290;2024-01-16T04:49:59;0.40;;;0.40;;
6438;SDS011;3252;52.540;13.290;2024-01-16T04:52:03;0.43;;;0.43;;
6438;SDS011;3252;52.540;13.290;2024-01-16T04:54:06;0.40;;;0.40;;
6438;SDS011;3252;52.540;13.290;2024-01-16T04:56:09;0.47;;;0.40;;
6438;SDS011;3252;52.540;13.290;2024-01-16T04:58:10;1.30;;;0.40;;
6438;SDS011;3252;52.540;13.290;2024-01-16T05:00:12;0.63;;;0.57;;
6438;SDS011;3252;52.540;13.290;2024-01-16T05:02:14;0.80;;;0.50;;
6438;SDS011;3252;52.540;13.290;2024-01-16T05:04:17;0.45;;;0.40;;
6438;SDS011;3252;52.540;13.290;2024-01-16T05:06:19;0.43;;;0.43;;
6438;SDS011;3252;52.540;13.290;2024-01-16T05:08:23;0.60;;;0.50;;
6438;SDS011;3252;52.540;13.290;2024-01-16T05:10:25;0.73;;;0.50;;
6438;SDS011;3252;52.540;13.290;2024-01-16T05:12:27;0.50;;;0.40;;
6438;SDS011;3252;52.540;13.290;2024-01-16T05:14:28;0.80;;;0.50;;
6438;SDS011;3252;52.540;13.290;2024-01-16T05:16:30;0.50;;;0.50;;
6438;SDS011;3252;52.540;13.290;2024-01-16T05:18:32;0.67;;;0.40;;
6438;SDS011;3252;52.540;13.290;2024-01-16T05:20:33;0.53;;;0.47;;
6438;SDS011;3252;52.540;13.290;2024-01-16T05:22:36;0.70;;;0.43;;
6438;SDS011;3252;52.540;13.290;2024-01-16T05:24:40;0.60;;;0.52;;
6438;SDS011;3252;52.540;13.290;2024-01-16T05:26:42;0.67;;;0.53;;
6438;SDS011;3252;52.540;13.290;2024-01-16T05:28:45;0.52;;;0.40;;
6438;SDS011;3252;52.540;13.290;2024-01-16T05:30:47;0.88;;;0.50;;
6438;SDS011;3252;52.540;13.290;2024-01-16T05:32:49;0.50;;;0.50;;
6438;SDS011;3252;52.540;13.290;2024-01-16T05:34:50;0.75;;;0.40;;
6438;SDS011;3252;52.540;13.290;2024-01-16T05:36:52;0.70;;;0.50;;
6438;SDS011;3252;52.540;13.290;2024-01-16T05:38:55;0.80;;;0.45;;
6438;SDS011;3252;52.540;13.290;2024-01-16T05:40:58;0.80;;;0.70;;
6438;SDS011;3252;52.540;13.290;2024-01-16T05:43:00;0.30;;;0.30;;
6438;SDS011;3252;52.540;13.290;2024-01-16T05:45:03;0.77;;;0.45;;
6438;SDS011;3252;52.540;13.290;2024-01-16T05:47:06;0.68;;;0.52;;
6438;SDS011;3252;52.540;13.290;2024-01-16T05:49:08;0.50;;;0.40;;
6438;SDS011;3252;52.540;13.290;2024-01-16T05:51:10;0.57;;;0.40;;
6438;SDS011;3252;52.540;13.290;2024-01-16T05:53:12;0.45;;;0.40;;
6438;SDS011;3252;52.540;13.290;2024-01-16T05:55:13;0.40;;;0.30;;
6438;SDS011;3252;52.540;13.290;2024-01-16T05:57:17;0.40;;;0.40;;
6438;SDS011;3252;52.540;13.290;2024-01-16T05:59:19;0.47;;;0.45;;
6438;SDS011;3252;52.540;13.290;2024-01-16T06:01:21;0.50;;;0.38;;
6438;SDS011;3252;52.540;13.290;2024-01-16T06:03:23;0.60;;;0.40;;
6438;SDS011;3252;52.540;13.290;2024-01-16T06:05:25;1.30;;;0.55;;
6438;SDS011;3252;52.540;13.290;2024-01-16T06:07:28;1.42;;;0.82;;
6438;SDS011;3252;52.540;13.290;2024-01-16T06:09:30;3.50;;;1.60;;
6438;SDS011;3252;52.540;13.290;2024-01-16T06:11:32;4.43;;;2.00;;
6438;SDS011;3252;52.540;13.290;2024-01-16T06:13:36;5.57;;;1.95;;
6438;SDS011;3252;52.540;13.290;2024-01-16T06:15:38;8.38;;;2.47;;
6438;SDS011;3252;52.540;13.290;2024-01-16T06:17:40;11.63;;;2.28;;
6438;SDS011;3252;52.540;13.290;2024-01-16T06:19:42;5.68;;;2.38;;
6438;SDS011;3252;52.540;13.290;2024-01-16T06:21:44;5.47;;;2.15;;
6438;SDS011;3252;52.540;13.290;2024-01-16T06:23:46;7.55;;;2.58;;
6438;SDS011;3252;52.540;13.290;2024-01-16T06:25:47;8.45;;;2.75;;
6438;SDS011;3252;52.540;13.290;2024-01-16T06:27:50;6.78;;;2.58;;
6438;SDS011;3252;52.540;13.290;2024-01-16T06:29:54;6.95;;;2.88;;
6438;SDS011;3252;52.540;13.290;2024-01-16T06:31:56;6.82;;;2.60;;
6438;SDS011;3252;52.540;13.290;2024-01-16T06:33:58;7.90;;;2.72;;
6438;SDS011;3252;52.540;13.290;2024-01-16T06:36:00;5.93;;;2.47;;
6438;SDS011;3252;52.540;13.290;2024-01-16T06:38:04;9.02;;;2.58;;
6438;SDS011;3252;52.540;13.290;2024-01-16T06:40:06;7.05;;;2.60;;
6438;SDS011;3252;52.540;13.290;2024-01-16T06:42:09;5.47;;;2.10;;
6438;SDS011;3252;52.540;13.290;2024-01-16T06:44:11;6.32;;;2.58;;
6438;SDS011;3252;52.540;13.290;2024-01-16T06:46:14;6.15;;;2.80;;
6438;SDS011;3252;52.540;13.290;2024-01-16T06:48:16;11.60;;;2.83;;
6438;SDS011;3252;52.540;13.290;2024-01-16T06:50:18;7.10;;;2.70;;
6438;SDS011;3252;52.540;13.290;2024-01-16T06:52:20;8.52;;;3.05;;
6438;SDS011;3252;52.540;13.290;2024-01-16T06:54:22;9.85;;;2.90;;
6438;SDS011;3252;52.540;13.290;2024-01-16T06:56:24;6.65;;;2.92;;
6438;SDS011;3252;52.540;13.290;2024-01-16T06:58:27;6.03;;;2.40;;
6438;SDS011;3252;52.540;13.290;2024-01-16T07:00:28;7.20;;;2.60;;
6438;SDS011;3252;52.540;13.290;2024-01-16T07:02:31;5.65;;;2.30;;
6438;SDS011;3252;52.540;13.290;2024-01-16T07:04:32;7.10;;;2.70;;
6438;SDS011;3252;52.540;13.290;2024-01-16T07:06:34;6.10;;;2.50;;
6438;SDS011;3252;52.540;13.290;2024-01-16T07:08:37;6.57;;;2.55;;
6438;SDS011;3252;52.540;13.290;2024-01-16T07:10:39;6.03;;;2.50;;
6438;SDS011;3252;52.540;13.290;2024-01-16T07:12:41;5.50;;;2.17;;
6438;SDS011;3252;52.540;13.290;2024-01-16T07:14:42;9.40;;;2.38;;
6438;SDS011;3252;52.540;13.290;2024-01-16T07:16:44;5.32;;;2.30;;
6438;SDS011;3252;52.540;13.290;2024-01-16T07:18:47;6.35;;;2.40;;
6438;SDS011;3252;52.540;13.290;2024-01-16T07:20:50;8.55;;;2.65;;
6438;SDS011;3252;52.540;13.290;2024-01-16T07:22:52;6.65;;;2.20;;
6438;SDS011;3252;52.540;13.290;2024-01-16T07:24:54;6.05;;;2.10;;
6438;SDS011;3252;52.540;13.290;2024-01-16T07:26:56;4.78;;;2.20;;
6438;SDS011;3252;52.540;13.290;2024-01-16T07:28:59;5.38;;;2.20;;
6438;SDS011;3252;52.540;13.290;2024-01-16T07:31:01;5.82;;;2.20;;
6438;SDS011;3252;52.540;13.290;2024-01-16T07:33:02;3.58;;;1.77;;
6438;SDS011;3252;52.540;13.290;2024-01-16T07:35:06;6.65;;;2.10;;
6438;SDS011;3252;52.540;13.290;2024-01-16T07:37:09;8.52;;;2.28;;
6438;SDS011;3252;52.540;13.290;2024-01-16T07:39:11;7.13;;;2.22;;
6438;SDS011;3252;52.540;13.290;2024-01-16T07:41:14;4.28;;;2.08;;
6438;SDS011;3252;52.540;13.290;2024-01-16T07:43:16;3.78;;;1.83;;
6438;SDS011;3252;52.540;13.290;2024-01-16T07:45:17;6.70;;;2.42;;
6438;SDS011;3252;52.540;13.290;2024-01-16T07:47:19;3.42;;;1.90;;
6438;SDS011;3252;52.540;13.290;2024-01-16T07:49:21;4.07;;;2.05;;
6438;SDS011;3252;52.540;13.290;2024-01-16T07:51:25;5.38;;;2.28;;
6438;SDS011;3252;52.540;13.290;2024-01-16T07:53:27;5.57;;;1.95;;
6438;SDS011;3252;52.540;13.290;2024-01-16T07:55:29;4.50;;;1.95;;
6438;SDS011;3252;52.540;13.290;2024-01-16T07:57:31;6.50;;;2.53;;
6438;SDS011;3252;52.540;13.290;2024-01-16T07:59:34;13.90;;;4.43;;
6438;SDS011;3252;52.540;13.290;2024-01-16T08:01:36;15.30;;;4.75;;
6438;SDS011;3252;52.540;13.290;2024-01-16T08:03:39;13.35;;;4.93;;
6438;SDS011;3252;52.540;13.290;2024-01-16T08:05:41;16.67;;;4.70;;
6438;SDS011;3252;52.540;13.290;2024-01-16T08:07:44;18.27;;;5.82;;
6438;SDS011;3252;52.540;13.290;2024-01-16T08:09:46;15.02;;;4.60;;
6438;SDS011;3252;52.540;13.290;2024-01-16T08:11:48;1999.90;;;999.90;;
6438;SDS011;3252;52.540;13.290;2024-01-16T08:13:51;948.78;;;655.95;;
6438;SDS011;3252;52.540;13.290;2024-01-16T08:15:53;1999.90;;;999.90;;
6438;SDS011;3252;52.540;13.290;2024-01-16T08:17:55;299.00;;;176.07;;
6438;SDS011;3252;52.540;13.290;2024-01-16T08:19:57;264.35;;;141.70;;
6438;SDS011;3252;52.540;13.290;2024-01-16T08:21:59;663.20;;;431.35;;
6438;SDS011;3252;52.540;13.290;2024-01-16T08:24:04;377.55;;;191.45;;
6438;SDS011;3252;52.540;13.290;2024-01-16T08:26:06;1459.07;;;874.90;;
6438;SDS011;3252;52.540;13.290;2024-01-16T08:28:08;608.30;;;386.45;;
6438;SDS011;3252;52.540;13.290;2024-01-16T08:30:11;1999.90;;;999.90;;
6438;SDS011;3252;52.540;13.290;2024-01-16T08:32:12;1999.90;;;999.90;;
6438;SDS011;3252;52.540;13.290;2024-01-16T08:34:14;1999.90;;;999.90;;
6438;SDS011;3252;52.540;13.290;2024-01-16T08:36:17;1222.57;;;804.65;;
6438;SDS011;3252;52.540;13.290;2024-01-16T08:38:19;1999.90;;;999.90;;
6438;SDS011;3252;52.540;13.290;2024-01-16T08:40:22;1705.47;;;963.38;;
6438;SDS011;3252;52.540;13.290;2024-01-16T08:42:24;1999.90;;;999.90;;
6438;SDS011;3252;52.540;13.290;2024-01-16T08:44:27;346.83;;;186.48;;
6438;SDS011;3252;52.540;13.290;2024-01-16T08:46:29;62.00;;;29.77;;
6438;SDS011;3252;52.540;13.290;2024-01-16T08:48:30;16.13;;;6.97;;
6438;SDS011;3252;52.540;13.290;2024-01-16T08:50:32;6.37;;;3.37;;
6438;SDS011;3252;52.540;13.290;2024-01-16T08:52:34;8.23;;;3.10;;
6438;SDS011;3252;52.540;13.290;2024-01-16T08:54:36;7.65;;;2.95;;
6438;SDS011;3252;52.540;13.290;2024-01-16T08:56:39;171.02;;;129.32;;
6438;SDS011;3252;52.540;13.290;2024-01-16T08:58:41;816.40;;;650.33;;
6438;SDS011;3252;52.540;13.290;2024-01-16T09:00:43;1999.90;;;999.90;;
6438;SDS011;3252;52.540;13.290;2024-01-16T09:02:45;762.47;;;608.40;;
6438;SDS011;3252;52.540;13.290;2024-01-16T09:04:48;664.63;;;520.75;;
6438;SDS011;3252;52.540;13.290;2024-01-16T09:06:50;632.67;;;466.85;;
6438;SDS011;3252;52.540;13.290;2024-01-16T09:08:52;511.47;;;335.27;;
6438;SDS011;3252;52.540;13.290;2024-01-16T09:10:53;439.53;;;252.77;;
6438;SDS011;3252;52.540;13.290;2024-01-16T09:12:57;322.43;;;169.53;;
6438;SDS011;3252;52.540;13.290;2024-01-16T09:14:59;214.63;;;95.20;;
6438;SDS011;3252;52.540;13.290;2024-01-16T09:17:02;104.80;;;41.10;;
6438;SDS011;3252;52.540;13.290;2024-01-16T09:19:04;39.45;;;15.45;;
6438;SDS011;3252;52.540;13.290;2024-01-16T09:21:06;19.03;;;6.97;;
6438;SDS011;3252;52.540;13.290;2024-01-16T09:23:08;12.07;;;4.00;;
6438;SDS011;3252;52.540;13.290;2024-01-16T09:25:10;6.80;;;3.00;;
6438;SDS011;3252;52.540;13.290;2024-01-16T09:27:12;8.00;;;2.60;;
6438;SDS011;3252;52.540;13.290;2024-01-16T09:29:16;9.07;;;2.53;;
6438;SDS011;3252;52.540;13.290;2024-01-16T09:31:18;6.60;;;2.50;;
6438;SDS011;3252;52.540;13.290;2024-01-16T09:33:20;5.75;;;2.30;;
6438;SDS011;3252;52.540;13.290;2024-01-16T09:35:22;4.03;;;2.05;;
6438;SDS011;3252;52.540;13.290;2024-01-16T09:37:24;4.37;;;2.23;;
6438;SDS011;3252;52.540;13.290;2024-01-16T09:39:27;6.43;;;2.53;;
6438;SDS011;3252;52.540;13.290;2024-01-16T09:41:28;5.47;;;2.00;;
6438;SDS011;3252;52.540;13.290;2024-01-16T09:43:33;5.05;;;2.22;;
6438;SDS011;3252;52.540;13.290;2024-01-16T09:45:37;5.73;;;2.47;;
6438;SDS011;3252;52.540;13.290;2024-01-16T09:47:39;5.47;;;2.30;;
6438;SDS011;3252;52.540;13.290;2024-01-16T09:49:42;5.97;;;2.27;;
6438;SDS011;3252;52.540;13.290;2024-01-16T09:51:45;4.05;;;1.75;;
6438;SDS011;3252;52.540;13.290;2024-01-16T09:53:47;4.47;;;1.88;;
6438;SDS011;3252;52.540;13.290;2024-01-16T09:55:50;6.30;;;2.20;;
6438;SDS011;3252;52.540;13.290;2024-01-16T09:57:55;5.82;;;2.15;;
6438;SDS011;3252;52.540;13.290;2024-01-16T09:59:58;7.07;;;2.10;;
6438;SDS011;3252;52.540;13.290;2024-01-16T10:02:09;3.45;;;1.92;;
6438;SDS011;3252;52.540;13.290;2024-01-16T10:04:13;5.57;;;2.20;;
6438;SDS011;3252;52.540;13.290;2024-01-16T10:06:15;5.33;;;2.07;;
6438;SDS011;3252;52.540;13.290;2024-01-16T10:08:21;6.20;;;2.00;;
6438;SDS011;3252;52.540;13.290;2024-01-16T10:10:23;4.00;;;1.70;;
6438;SDS011;3252;52.540;13.290;2024-01-16T10:12:28;7.15;;;2.40;;
6438;SDS011;3252;52.540;13.290;2024-01-16T10:14:30;1999.90;;;999.90;;
6438;SDS011;3252;52.540;13.290;2024-01-16T10:19:04;1999.90;;;999.90;;
6438;SDS011;3252;52.540;13.290;2024-01-16T10:21:09;1999.90;;;999.90;;
6438;SDS011;3252;52.540;13.290;2024-01-16T10:23:22;1726.78;;;987.67;;
6438;SDS011;3252;52.540;13.290;2024-01-16T10:25:25;1487.15;;;905.45;;
6438;SDS011;3252;52.540;13.290;2024-01-16T10:27:27;1287.63;;;818.45;;
6438;SDS011;3252;52.540;13.290;2024-01-16T10:29:31;1215.10;;;770.90;;
6438;SDS011;3252;52.540;13.290;2024-01-16T10:31:33;1083.15;;;678.13;;
6438;SDS011;3252;52.540;13.290;2024-01-16T10:33:34;970.05;;;598.55;;
6438;SDS011;3252;52.540;13.290;2024-01-16T10:35:39;844.05;;;507.25;;
6438;SDS011;3252;52.540;13.290;2024-01-16T10:37:41;739.38;;;410.20;;
6438;SDS011;3252;52.540;13.290;2024-01-16T10:39:47;1999.90;;;999.90;;
6438;SDS011;3252;52.540;13.290;2024-01-16T10:41:55;1483.20;;;886.35;;
6438;SDS011;3252;52.540;13.290;2024-01-16T10:44:03;88.72;;;42.40;;
6438;SDS011;3252;52.540;13.290;2024-01-16T10:46:10;14.88;;;6.95;;
6438;SDS011;3252;52.540;13.290;2024-01-16T10:48:12;6.68;;;3.70;;
6438;SDS011;3252;52.540;13.290;2024-01-16T10:50:16;83.25;;;51.00;;
6438;SDS011;3252;52.540;13.290;2024-01-16T10:52:19;35.92;;;17.85;;
6438;SDS011;3252;52.540;13.290;2024-01-16T10:54:28;10.65;;;4.70;;
6438;SDS011;3252;52.540;13.290;2024-01-16T10:56:32;8.60;;;3.57;;
6438;SDS011;3252;52.540;13.290;2024-01-16T10:58:34;7.85;;;2.92;;
6438;SDS011;3252;52.540;13.290;2024-01-16T11:00:40;6.50;;;3.00;;
6438;SDS011;3252;52.540;13.290;2024-01-16T11:02:43;4.05;;;2.15;;
6438;SDS011;3252;52.540;13.290;2024-01-16T11:05:03;3.80;;;1.83;;
6438;SDS011;3252;52.540;13.290;2024-01-16T11:07:06;4.90;;;2.10;;
6438;SDS011;3252;52.540;13.290;2024-01-16T11:09:10;4.03;;;1.90;;
6438;SDS011;3252;52.540;13.290;2024-01-16T11:11:16;2.88;;;1.52;;
6438;SDS011;3252;52.540;13.290;2024-01-16T11:13:18;3.83;;;2.00;;
6438;SDS011;3252;52.540;13.290;2024-01-16T11:15:22;4.23;;;1.80;;
6438;SDS011;3252;52.540;13.290;2024-01-16T11:17:26;2.73;;;1.40;;
6438;SDS011;3252;52.540;13.290;2024-01-16T11:19:28;3.83;;;1.63;;
6438;SDS011;3252;52.540;13.290;2024-01-16T11:21:31;3.80;;;1.90;;
6438;SDS011;3252;52.540;13.290;2024-01-16T11:23:34;3.40;;;1.52;;
6438;SDS011;3252;52.540;13.290;2024-01-16T11:25:38;3.30;;;1.50;;
6438;SDS011;3252;52.540;13.290;2024-01-16T11:27:40;3.25;;;1.48;;
6438;SDS011;3252;52.540;13.290;2024-01-16T11:29:43;4.80;;;1.60;;
6438;SDS011;3252;52.540;13.290;2024-01-16T11:31:51;2.73;;;1.20;;
6438;SDS011;3252;52.540;13.290;2024-01-16T11:33:53;3.13;;;1.50;;
6438;SDS011;3252;52.540;13.290;2024-01-16T11:35:55;3.08;;;1.63;;
6438;SDS011;3252;52.540;13.290;2024-01-16T11:37:57;3.33;;;1.48;;
6438;SDS011;3252;52.540;13.290;2024-01-16T11:40:21;2.97;;;1.53;;
6438;SDS011;3252;52.540;13.290;2024-01-16T11:42:29;3.28;;;1.52;;
6438;SDS011;3252;52.540;13.290;2024-01-16T11:44:45;3.53;;;1.37;;
6438;SDS011;3252;52.540;13.290;2024-01-16T11:47:00;2.27;;;1.37;;
6438;SDS011;3252;52.540;13.290;2024-01-16T11:49:02;2.90;;;1.30;;
6438;SDS011;3252;52.540;13.290;2024-01-16T11:53:31;1999.90;;;999.90;;
6438;SDS011;3252;52.540;13.290;2024-01-16T11:55:34;1999.90;;;999.90;;
6438;SDS011;3252;52.540;13.290;2024-01-16T11:57:45;1999.90;;;999.90;;
6438;SDS011;3252;52.540;13.290;2024-01-16T11:59:57;1999.90;;;999.90;;
6438;SDS011;3252;52.540;13.290;2024-01-16T12:02:01;1999.90;;;999.90;;
6438;SDS011;3252;52.540;13.290;2024-01-16T12:04:06;1999.90;;;999.90;;
6438;SDS011;3252;52.540;13.290;2024-01-16T12:06:09;1995.38;;;999.90;;
6438;SDS011;3252;52.540;13.290;2024-01-16T12:08:11;1897.45;;;999.90;;
6438;SDS011;3252;52.540;13.290;2024-01-16T12:10:22;1782.97;;;970.80;;
6438;SDS011;3252;52.540;13.290;2024-01-16T12:12:25;1709.83;;;949.77;;
6438;SDS011;3252;52.540;13.290;2024-01-16T12:14:28;1567.50;;;884.50;;
6438;SDS011;3252;52.540;13.290;2024-01-16T12:16:31;1514.03;;;860.42;;
6438;SDS011;3252;52.540;13.290;2024-01-16T12:18:33;1379.68;;;794.65;;
6438;SDS011;3252;52.540;13.290;2024-01-16T12:20:36;1204.50;;;702.63;;
6438;SDS011;3252;52.540;13.290;2024-01-16T12:22:39;1104.22;;;637.50;;
6438;SDS011;3252;52.540;13.290;2024-01-16T12:24:40;962.05;;;542.03;;
6438;SDS011;3252;52.540;13.290;2024-01-16T12:26:42;826.00;;;446.48;;
6438;SDS011;3252;52.540;13.290;2024-01-16T12:28:45;1999.90;;;999.90;;